sensor_id;sensor_type;location;lat;lon;timestamp;pressure;altitude;pressure_sealevel;temperature;humidity
62708;BME280;48769;51.624;5.886;2023-09-19T00:02:16;100589.66;;;15.94;100.00
62708;BME280;48769;51.624;5.886;2023-09-19T00:04:42;100595.81;;;15.95;100.00
62708;BME280;48769;51.624;5.886;2023-09-19T00:07:08;100597.66;;;15.94;100.00
62708;BME280;48769;51.624;5.886;2023-09-19T00:09:34;100600.31;;;15.94;100.00
62708;BME280;48769;51.624;5.886;2023-09-19T00:12:06;100607.56;;;15.92;100.00
62708;BME280;48769;51.624;5.886;2023-09-19T00:14:34;100600.53;;;15.91;100.00
62708;BME280;48769;51.624;5.886;2023-09-19T00:17:01;100606.84;;;15.90;100.00
62708;BME280;48769;51.624;5.886;2023-09-19T00:19:31;100613.38;;;15.86;100.00
62708;BME280;48769;51.624;5.886;2023-09-19T00:21:57;100617.59;;;15.88;100.00
62708;BME280;48769;51.624;5.886;2023-09-19T00:24:23;100612.66;;;15.84;100.00
62708;BME280;48769;51.624;5.886;2023-09-19T00:26:48;100604.66;;;15.84;100.00
62708;BME280;48769;51.624;5.886;2023-09-19T00:29:13;100621.72;;;15.81;100.00
62708;BME280;48769;51.624;5.886;2023-09-19T00:31:43;100615.03;;;15.76;100.00
62708;BME280;48769;51.624;5.886;2023-09-19T00:34:08;100614.31;;;15.74;100.00
62708;BME280;48769;51.624;5.886;2023-09-19T00:36:36;100627.75;;;15.72;100.00
62708;BME280;48769;51.624;5.886;2023-09-19T00:39:04;100623.53;;;15.70;100.00
62708;BME280;48769;51.624;5.886;2023-09-19T00:41:31;100627.34;;;15.65;100.00
62708;BME280;48769;51.624;5.886;2023-09-19T00:43:56;100624.59;;;15.67;100.00
62708;BME280;48769;51.624;5.886;2023-09-19T00:46:21;100625.66;;;15.64;100.00
62708;BME280;48769;51.624;5.886;2023-09-19T00:48:47;100636.41;;;15.63;100.00
62708;BME280;48769;51.624;5.886;2023-09-19T00:51:13;100639.94;;;15.63;100.00
62708;BME280;48769;51.624;5.886;2023-09-19T00:53:39;100635.44;;;15.64;100.00
62708;BME280;48769;51.624;5.886;2023-09-19T00:56:07;100643.53;;;15.62;100.00
62708;BME280;48769;51.624;5.886;2023-09-19T00:58:33;100650.81;;;15.60;100.00
62708;BME280;48769;51.624;5.886;2023-09-19T01:01:00;100652.50;;;15.61;100.00
62708;BME280;48769;51.624;5.886;2023-09-19T01:03:27;100652.88;;;15.57;100.00
62708;BME280;48769;51.624;5.886;2023-09-19T01:05:52;100652.47;;;15.50;100.00
62708;BME280;48769;51.624;5.886;2023-09-19T01:08:18;100655.38;;;15.47;100.00
62708;BME280;48769;51.624;5.886;2023-09-19T01:10:52;100655.38;;;15.47;100.00
62708;BME280;48769;51.624;5.886;2023-09-19T01:13:30;100662.63;;;15.45;100.00
62708;BME280;48769;51.624;5.886;2023-09-19T01:16:27;100662.63;;;15.45;100.00
62708;BME280;48769;51.624;5.886;2023-09-19T01:21:54;100672.88;;;15.38;100.00
62708;BME280;48769;51.624;5.886;2023-09-19T01:30:17;100671.34;;;15.47;100.00
62708;BME280;48769;51.624;5.886;2023-09-19T01:32:43;100674.94;;;15.46;100.00
62708;BME280;48769;51.624;5.886;2023-09-19T01:35:09;100681.34;;;15.43;100.00
62708;BME280;48769;51.624;5.886;2023-09-19T01:37:38;100678.94;;;15.40;100.00
62708;BME280;48769;51.624;5.886;2023-09-19T01:40:06;100687.03;;;15.39;100.00
62708;BME280;48769;51.624;5.886;2023-09-19T01:42:59;100688.31;;;15.33;100.00
62708;BME280;48769;51.624;5.886;2023-09-19T01:45:38;100691.34;;;15.29;100.00
62708;BME280;48769;51.624;5.886;2023-09-19T01:48:25;100681.66;;;15.28;100.00
62708;BME280;48769;51.624;5.886;2023-09-19T01:51:02;100692.53;;;15.25;100.00
62708;BME280;48769;51.624;5.886;2023-09-19T01:53:37;100693.59;;;15.22;100.00
62708;BME280;48769;51.624;5.886;2023-09-19T01:56:08;100686.91;;;15.16;100.00
62708;BME280;48769;51.624;5.886;2023-09-19T01:58:41;100692.13;;;15.18;100.00
62708;BME280;48769;51.624;5.886;2023-09-19T02:01:10;100691.25;;;15.17;100.00
62708;BME280;48769;51.624;5.886;2023-09-19T02:03:39;100690.75;;;15.12;100.00
62708;BME280;48769;51.624;5.886;2023-09-19T02:06:05;100695.56;;;15.07;100.00
62708;BME280;48769;51.624;5.886;2023-09-19T02:08:36;100692.16;;;15.05;100.00
62708;BME280;48769;51.624;5.886;2023-09-19T02:11:01;100696.53;;;15.06;100.00
62708;BME280;48769;51.624;5.886;2023-09-19T02:13:27;100690.97;;;15.09;100.00
62708;BME280;48769;51.624;5.886;2023-09-19T02:15:53;100699.19;;;15.06;100.00
62708;BME280;48769;51.624;5.886;2023-09-19T02:18:18;100695.56;;;15.07;100.00
62708;BME280;48769;51.624;5.886;2023-09-19T02:20:44;100699.53;;;15.02;100.00
62708;BME280;48769;51.624;5.886;2023-09-19T02:23:11;100695.16;;;15.01;100.00
62708;BME280;48769;51.624;5.886;2023-09-19T02:25:37;100703.03;;;15.02;100.00
62708;BME280;48769;51.624;5.886;2023-09-19T02:28:05;100703.47;;;14.96;100.00
62708;BME280;48769;51.624;5.886;2023-09-19T02:30:31;100702.09;;;14.90;100.00
62708;BME280;48769;51.624;5.886;2023-09-19T02:32:56;100708.88;;;14.94;100.00
62708;BME280;48769;51.624;5.886;2023-09-19T02:35:22;100702.00;;;14.92;100.00
62708;BME280;48769;51.624;5.886;2023-09-19T02:37:48;100705.59;;;14.91;100.00
62708;BME280;48769;51.624;5.886;2023-09-19T02:40:13;100707.31;;;14.92;100.00
62708;BME280;48769;51.624;5.886;2023-09-19T02:42:48;100708.16;;;14.92;100.00
62708;BME280;48769;51.624;5.886;2023-09-19T02:45:18;100712.22;;;14.85;100.00
62708;BME280;48769;51.624;5.886;2023-09-19T02:47:44;100720.31;;;14.84;100.00
62708;BME280;48769;51.624;5.886;2023-09-19T02:50:10;100726.38;;;14.86;100.00
62708;BME280;48769;51.624;5.886;2023-09-19T02:52:45;100720.53;;;14.81;100.00
62708;BME280;48769;51.624;5.886;2023-09-19T02:55:12;100718.72;;;14.81;100.00
62708;BME280;48769;51.624;5.886;2023-09-19T02:57:45;100724.16;;;14.80;100.00
62708;BME280;48769;51.624;5.886;2023-09-19T03:00:12;100721.78;;;14.75;100.00
62708;BME280;48769;51.624;5.886;2023-09-19T03:02:38;100720.31;;;14.71;100.00
62708;BME280;48769;51.624;5.886;2023-09-19T03:05:05;100719.91;;;14.64;100.00
62708;BME280;48769;51.624;5.886;2023-09-19T03:07:31;100716.28;;;14.65;100.00
62708;BME280;48769;51.624;5.886;2023-09-19T03:09:56;100728.00;;;14.63;100.00
62708;BME280;48769;51.624;5.886;2023-09-19T03:12:22;100718.44;;;14.60;100.00
62708;BME280;48769;51.624;5.886;2023-09-19T03:14:48;100720.34;;;14.58;100.00
62708;BME280;48769;51.624;5.886;2023-09-19T03:17:13;100729.28;;;14.57;100.00
62708;BME280;48769;51.624;5.886;2023-09-19T03:19:40;100726.00;;;14.54;100.00
62708;BME280;48769;51.624;5.886;2023-09-19T03:22:05;100731.19;;;14.55;100.00
62708;BME280;48769;51.624;5.886;2023-09-19T03:24:31;100729.38;;;14.56;100.00
62708;BME280;48769;51.624;5.886;2023-09-19T03:26:57;100725.03;;;14.55;100.00
62708;BME280;48769;51.624;5.886;2023-09-19T03:29:22;100726.06;;;14.52;100.00
62708;BME280;48769;51.624;5.886;2023-09-19T03:31:48;100723.41;;;14.52;100.00
62708;BME280;48769;51.624;5.886;2023-09-19T03:34:13;100722.03;;;14.46;100.00
62708;BME280;48769;51.624;5.886;2023-09-19T03:36:39;100720.75;;;14.52;100.00
62708;BME280;48769;51.624;5.886;2023-09-19T03:39:09;100722.47;;;14.53;100.00
62708;BME280;48769;51.624;5.886;2023-09-19T03:41:35;100719.06;;;14.51;100.00
62708;BME280;48769;51.624;5.886;2023-09-19T03:44:01;100726.00;;;14.54;100.00
62708;BME280;48769;51.624;5.886;2023-09-19T03:46:27;100719.47;;;14.45;100.00
62708;BME280;48769;51.624;5.886;2023-09-19T03:48:53;100720.75;;;14.52;100.00
62708;BME280;48769;51.624;5.886;2023-09-19T03:51:19;100717.16;;;14.53;100.00
62708;BME280;48769;51.624;5.886;2023-09-19T03:53:44;100713.53;;;14.54;100.00
62708;BME280;48769;51.624;5.886;2023-09-19T03:56:10;100711.63;;;14.56;100.00
62708;BME280;48769;51.624;5.886;2023-09-19T03:58:35;100712.78;;;14.52;100.00
62708;BME280;48769;51.624;5.886;2023-09-19T04:01:04;100715.84;;;14.46;100.00
62708;BME280;48769;51.624;5.886;2023-09-19T04:03:29;100714.91;;;14.47;100.00
62708;BME280;48769;51.624;5.886;2023-09-19T04:06:01;100715.13;;;14.44;100.00
62708;BME280;48769;51.624;5.886;2023-09-19T04:08:26;100716.09;;;14.43;100.00
62708;BME280;48769;51.624;5.886;2023-09-19T04:10:52;100715.41;;;14.39;100.00
62708;BME280;48769;51.624;5.886;2023-09-19T04:13:18;100719.03;;;14.38;100.00
62708;BME280;48769;51.624;5.886;2023-09-19T04:15:43;100721.59;;;14.40;100.00
62708;BME280;48769;51.624;5.886;2023-09-19T04:18:09;100717.44;;;14.36;100.00
62708;BME280;48769;51.624;5.886;2023-09-19T04:20:34;100713.09;;;14.35;100.00
62708;BME280;48769;51.624;5.886;2023-09-19T04:22:59;100725.19;;;14.26;100.00
62708;BME280;48769;51.624;5.886;2023-09-19T04:25:25;100719.66;;;14.29;100.00
62708;BME280;48769;51.624;5.886;2023-09-19T04:27:51;100730.50;;;14.26;100.00
62708;BME280;48769;51.624;5.886;2023-09-19T04:30:20;100734.78;;;14.29;100.00
62708;BME280;48769;51.624;5.886;2023-09-19T04:32:46;100738.38;;;14.27;100.00
62708;BME280;48769;51.624;5.886;2023-09-19T04:35:15;100742.75;;;14.29;100.00
62708;BME280;48769;51.624;5.886;2023-09-19T04:37:41;100740.50;;;14.22;100.00
62708;BME280;48769;51.624;5.886;2023-09-19T04:40:09;100749.31;;;14.23;100.00
62708;BME280;48769;51.624;5.886;2023-09-19T04:42:39;100762.50;;;14.24;100.00
62708;BME280;48769;51.624;5.886;2023-09-19T04:45:04;100761.66;;;14.24;100.00
62708;BME280;48769;51.624;5.886;2023-09-19T04:47:30;100766.34;;;14.20;100.00
62708;BME280;48769;51.624;5.886;2023-09-19T04:49:55;100782.16;;;14.22;100.00
62708;BME280;48769;51.624;5.886;2023-09-19T04:52:22;100788.31;;;14.22;100.00
62708;BME280;48769;51.624;5.886;2023-09-19T04:54:47;100792.72;;;14.23;100.00
62708;BME280;48769;51.624;5.886;2023-09-19T04:57:13;100795.38;;;14.23;100.00
62708;BME280;48769;51.624;5.886;2023-09-19T04:59:38;100792.72;;;14.23;100.00
62708;BME280;48769;51.624;5.886;2023-09-19T05:02:06;100798.94;;;14.22;100.00
62708;BME280;48769;51.624;5.886;2023-09-19T05:04:33;100800.56;;;14.25;100.00
62708;BME280;48769;51.624;5.886;2023-09-19T05:06:58;100795.38;;;14.23;100.00
62708;BME280;48769;51.624;5.886;2023-09-19T05:09:23;100798.94;;;14.22;100.00
62708;BME280;48769;51.624;5.886;2023-09-19T05:11:49;100794.91;;;14.30;100.00
62708;BME280;48769;51.624;5.886;2023-09-19T05:14:16;100794.72;;;14.33;100.00
62708;BME280;48769;51.624;5.886;2023-09-19T05:16:41;100792.81;;;14.35;100.00
62708;BME280;48769;51.624;5.886;2023-09-19T05:19:08;100794.50;;;14.36;100.00
62708;BME280;48769;51.624;5.886;2023-09-19T05:21:37;100790.03;;;14.36;100.00
62708;BME280;48769;51.624;5.886;2023-09-19T05:24:07;100788.97;;;14.39;100.00
62708;BME280;48769;51.624;5.886;2023-09-19T05:26:32;100798.78;;;14.38;100.00
62708;BME280;48769;51.624;5.886;2023-09-19T05:28:58;100805.06;;;14.37;100.00
62708;BME280;48769;51.624;5.886;2023-09-19T05:31:23;100810.25;;;14.39;100.00
62708;BME280;48769;51.624;5.886;2023-09-19T05:33:49;100810.25;;;14.39;100.00
62708;BME280;48769;51.624;5.886;2023-09-19T05:36:15;100808.75;;;14.35;100.00
62708;BME280;48769;51.624;5.886;2023-09-19T05:38:42;100803.22;;;14.38;100.00
62708;BME280;48769;51.624;5.886;2023-09-19T05:41:08;100803.44;;;14.35;100.00
62708;BME280;48769;51.624;5.886;2023-09-19T05:43:36;100800.56;;;14.38;100.00
62708;BME280;48769;51.624;5.886;2023-09-19T05:46:03;100805.91;;;14.38;100.00
62708;BME280;48769;51.624;5.886;2023-09-19T05:48:28;100797.16;;;14.36;100.00
62708;BME280;48769;51.624;5.886;2023-09-19T05:50:54;100805.97;;;14.36;100.00
62708;BME280;48769;51.624;5.886;2023-09-19T05:53:19;100804.94;;;14.39;100.00
62708;BME280;48769;51.624;5.886;2023-09-19T05:55:44;100804.72;;;14.42;100.00
62708;BME280;48769;51.624;5.886;2023-09-19T05:58:10;100803.56;;;14.46;100.00
62708;BME280;48769;51.624;5.886;2023-09-19T06:00:39;100808.88;;;14.46;100.00
62708;BME280;48769;51.624;5.886;2023-09-19T06:03:06;100812.41;;;14.46;100.00
62708;BME280;48769;51.624;5.886;2023-09-19T06:05:32;100806.97;;;14.48;100.00
62708;BME280;48769;51.624;5.886;2023-09-19T06:07:58;100806.00;;;14.49;100.00
62708;BME280;48769;51.624;5.886;2023-09-19T06:10:31;100807.53;;;14.53;100.00
62708;BME280;48769;51.624;5.886;2023-09-19T06:12:57;100816.03;;;14.58;100.00
62708;BME280;48769;51.624;5.886;2023-09-19T06:15:23;100817.75;;;14.59;100.00
62708;BME280;48769;51.624;5.886;2023-09-19T06:17:52;100810.31;;;14.64;100.00
62708;BME280;48769;51.624;5.886;2023-09-19T06:20:22;100803.09;;;14.66;100.00
62708;BME280;48769;51.624;5.886;2023-09-19T06:22:49;100812.41;;;14.72;100.00
62708;BME280;48769;51.624;5.886;2023-09-19T06:25:15;100813.09;;;14.76;100.00
62708;BME280;48769;51.624;5.886;2023-09-19T06:27:47;100812.22;;;14.75;100.00
62708;BME280;48769;51.624;5.886;2023-09-19T06:30:13;100810.22;;;14.79;100.00
62708;BME280;48769;51.624;5.886;2023-09-19T06:32:39;100809.75;;;14.85;100.00
62708;BME280;48769;51.624;5.886;2023-09-19T06:35:05;100821.78;;;14.90;100.00
62708;BME280;48769;51.624;5.886;2023-09-19T06:37:36;100820.19;;;14.88;100.00
62708;BME280;48769;51.624;5.886;2023-09-19T06:40:13;100829.13;;;14.87;100.00
62708;BME280;48769;51.624;5.886;2023-09-19T06:42:41;100817.31;;;14.91;100.00
62708;BME280;48769;51.624;5.886;2023-09-19T06:45:07;100824.34;;;14.92;100.00
62708;BME280;48769;51.624;5.886;2023-09-19T06:47:32;100828.59;;;14.94;100.00
62708;BME280;48769;51.624;5.886;2023-09-19T06:49:57;100828.91;;;15.03;100.00
62708;BME280;48769;51.624;5.886;2023-09-19T06:52:23;100837.53;;;15.06;100.00
62708;BME280;48769;51.624;5.886;2023-09-19T06:54:48;100849.22;;;15.16;100.00
62708;BME280;48769;51.624;5.886;2023-09-19T06:57:16;100846.69;;;15.15;100.00
62708;BME280;48769;51.624;5.886;2023-09-19T06:59:41;100843.19;;;15.14;100.00
62708;BME280;48769;51.624;5.886;2023-09-19T07:02:06;100839.13;;;15.22;100.00
62708;BME280;48769;51.624;5.886;2023-09-19T07:04:33;100847.59;;;15.27;100.00
62708;BME280;48769;51.624;5.886;2023-09-19T07:06:58;100843.44;;;15.35;100.00
62708;BME280;48769;51.624;5.886;2023-09-19T07:09:24;100846.72;;;15.39;100.00
62708;BME280;48769;51.624;5.886;2023-09-19T07:11:52;100836.84;;;15.41;100.00
62708;BME280;48769;51.624;5.886;2023-09-19T07:14:18;100847.69;;;15.51;100.00
62708;BME280;48769;51.624;5.886;2023-09-19T07:16:44;100848.31;;;15.54;100.00
62708;BME280;48769;51.624;5.886;2023-09-19T07:19:10;100846.34;;;15.56;100.00
62708;BME280;48769;51.624;5.886;2023-09-19T07:21:35;100844.00;;;15.64;100.00
62708;BME280;48769;51.624;5.886;2023-09-19T07:24:01;100847.31;;;15.68;100.00
62708;BME280;48769;51.624;5.886;2023-09-19T07:26:30;100849.41;;;15.76;100.00
62708;BME280;48769;51.624;5.886;2023-09-19T07:28:56;100849.06;;;15.93;100.00
62708;BME280;48769;51.624;5.886;2023-09-19T07:31:22;100847.72;;;15.99;100.00
62708;BME280;48769;51.624;5.886;2023-09-19T07:33:48;100841.63;;;16.09;100.00
62708;BME280;48769;51.624;5.886;2023-09-19T07:36:13;100854.50;;;16.16;100.00
62708;BME280;48769;51.624;5.886;2023-09-19T07:38:40;100856.75;;;16.09;100.00
62708;BME280;48769;51.624;5.886;2023-09-19T07:41:06;100851.53;;;16.07;100.00
62708;BME280;48769;51.624;5.886;2023-09-19T07:43:31;100850.38;;;16.23;100.00
62708;BME280;48769;51.624;5.886;2023-09-19T07:45:57;100846.25;;;16.19;100.00
62708;BME280;48769;51.624;5.886;2023-09-19T07:48:25;100846.53;;;16.27;100.00
62708;BME280;48769;51.624;5.886;2023-09-19T07:50:51;100850.53;;;16.68;100.00
62708;BME280;48769;51.624;5.886;2023-09-19T07:53:16;100855.69;;;16.93;100.00
62708;BME280;48769;51.624;5.886;2023-09-19T07:55:43;100848.34;;;16.73;100.00
62708;BME280;48769;51.624;5.886;2023-09-19T07:58:13;100854.13;;;16.67;100.00
62708;BME280;48769;51.624;5.886;2023-09-19T08:00:38;100851.47;;;17.13;100.00
62708;BME280;48769;51.624;5.886;2023-09-19T08:03:04;100850.38;;;16.93;100.00
62708;BME280;48769;51.624;5.886;2023-09-19T08:05:29;100849.13;;;17.31;100.00
62708;BME280;48769;51.624;5.886;2023-09-19T08:07:54;100850.72;;;18.11;100.00
62708;BME280;48769;51.624;5.886;2023-09-19T08:10:21;100848.59;;;19.19;100.00
62708;BME280;48769;51.624;5.886;2023-09-19T08:12:47;100848.66;;;19.69;100.00
62708;BME280;48769;51.624;5.886;2023-09-19T08:15:17;100833.13;;;19.63;100.00
62708;BME280;48769;51.624;5.886;2023-09-19T08:17:45;100847.00;;;19.37;100.00
62708;BME280;48769;51.624;5.886;2023-09-19T08:20:11;100851.34;;;18.98;100.00
62708;BME280;48769;51.624;5.886;2023-09-19T08:22:51;100844.91;;;18.68;100.00
62708;BME280;48769;51.624;5.886;2023-09-19T08:25:18;100846.22;;;18.32;100.00
62708;BME280;48769;51.624;5.886;2023-09-19T08:27:45;100841.63;;;18.23;100.00
62708;BME280;48769;51.624;5.886;2023-09-19T08:30:14;100841.19;;;18.18;100.00
62708;BME280;48769;51.624;5.886;2023-09-19T08:32:40;100852.91;;;18.06;100.00
62708;BME280;48769;51.624;5.886;2023-09-19T08:35:08;100858.38;;;18.04;100.00
62708;BME280;48769;51.624;5.886;2023-09-19T08:37:34;100860.72;;;17.97;100.00
62708;BME280;48769;51.624;5.886;2023-09-19T08:39:59;100848.34;;;17.85;100.00
62708;BME280;48769;51.624;5.886;2023-09-19T08:42:25;100848.59;;;17.82;100.00
62708;BME280;48769;51.624;5.886;2023-09-19T08:44:50;100848.81;;;17.90;100.00
62708;BME280;48769;51.624;5.886;2023-09-19T08:47:21;100854.78;;;17.94;100.00
62708;BME280;48769;51.624;5.886;2023-09-19T08:50:11;100856.31;;;17.96;100.00
62708;BME280;48769;51.624;5.886;2023-09-19T08:52:42;100855.81;;;18.03;100.00
62708;BME280;48769;51.624;5.886;2023-09-19T08:55:12;100853.84;;;18.16;100.00
62708;BME280;48769;51.624;5.886;2023-09-19T08:57:38;100848.72;;;18.13;100.00
62708;BME280;48769;51.624;5.886;2023-09-19T09:00:07;100845.38;;;17.99;100.00
62708;BME280;48769;51.624;5.886;2023-09-19T09:02:38;100846.22;;;18.00;100.00
62708;BME280;48769;51.624;5.886;2023-09-19T09:05:07;100859.41;;;17.92;100.00
62708;BME280;48769;51.624;5.886;2023-09-19T09:07:35;100859.16;;;17.84;100.00
62708;BME280;48769;51.624;5.886;2023-09-19T09:10:03;100847.34;;;17.97;100.00
62708;BME280;48769;51.624;5.886;2023-09-19T09:12:29;100849.53;;;18.04;100.00
62708;BME280;48769;51.624;5.886;2023-09-19T09:14:55;100864.84;;;18.02;100.00
62708;BME280;48769;51.624;5.886;2023-09-19T09:17:21;100849.28;;;17.95;100.00
62708;BME280;48769;51.624;5.886;2023-09-19T09:19:47;100850.72;;;18.11;100.00
62708;BME280;48769;51.624;5.886;2023-09-19T09:22:12;100843.34;;;18.24;100.00
62708;BME280;48769;51.624;5.886;2023-09-19T09:24:51;100849.66;;;18.23;100.00
62708;BME280;48769;51.624;5.886;2023-09-19T09:27:19;100851.13;;;18.27;100.00
62708;BME280;48769;51.624;5.886;2023-09-19T09:29:46;100856.84;;;18.22;100.00
62708;BME280;48769;51.624;5.886;2023-09-19T09:32:41;100869.94;;;18.05;100.00
62708;BME280;48769;51.624;5.886;2023-09-19T09:35:08;100869.25;;;17.91;100.00
62708;BME280;48769;51.624;5.886;2023-09-19T09:37:43;100847.84;;;17.91;100.00
62708;BME280;48769;51.624;5.886;2023-09-19T09:40:08;100852.69;;;17.97;100.00
62708;BME280;48769;51.624;5.886;2023-09-19T09:42:40;100848.03;;;18.11;100.00
62708;BME280;48769;51.624;5.886;2023-09-19T09:45:16;100846.16;;;18.22;100.00
62708;BME280;48769;51.624;5.886;2023-09-19T09:47:48;100834.56;;;18.33;100.00
62708;BME280;48769;51.624;5.886;2023-09-19T09:50:32;100832.41;;;18.27;100.00
62708;BME280;48769;51.624;5.886;2023-09-19T09:53:23;100834.09;;;18.28;100.00
62708;BME280;48769;51.624;5.886;2023-09-19T09:56:02;100820.63;;;18.30;100.00
62708;BME280;48769;51.624;5.886;2023-09-19T09:58:32;100839.50;;;18.38;100.00
62708;BME280;48769;51.624;5.886;2023-09-19T10:00:58;100821.63;;;18.38;100.00
62708;BME280;48769;51.624;5.886;2023-09-19T10:03:38;100828.81;;;18.38;100.00
62708;BME280;48769;51.624;5.886;2023-09-19T10:06:14;100832.28;;;18.50;100.00
62708;BME280;48769;51.624;5.886;2023-09-19T10:09:09;100840.22;;;18.61;100.00
62708;BME280;48769;51.624;5.886;2023-09-19T10:12:05;100824.84;;;18.74;100.00
62708;BME280;48769;51.624;5.886;2023-09-19T10:14:35;100837.97;;;18.77;100.00
62708;BME280;48769;51.624;5.886;2023-09-19T10:17:05;100831.63;;;18.78;100.00
62708;BME280;48769;51.624;5.886;2023-09-19T10:19:37;100821.81;;;18.79;100.00
62708;BME280;48769;51.624;5.886;2023-09-19T10:22:04;100829.81;;;18.79;100.00
62708;BME280;48769;51.624;5.886;2023-09-19T10:24:33;100820.41;;;18.84;100.00
62708;BME280;48769;51.624;5.886;2023-09-19T10:26:59;100829.63;;;18.91;100.00
62708;BME280;48769;51.624;5.886;2023-09-19T10:29:27;100831.38;;;18.81;100.00
62708;BME280;48769;51.624;5.886;2023-09-19T10:31:58;100823.16;;;18.73;100.00
62708;BME280;48769;51.624;5.886;2023-09-19T10:34:25;100823.06;;;18.84;100.00
62708;BME280;48769;51.624;5.886;2023-09-19T10:36:52;100821.59;;;18.91;100.00
62708;BME280;48769;51.624;5.886;2023-09-19T10:39:18;100823.34;;;19.12;100.00
62708;BME280;48769;51.624;5.886;2023-09-19T10:41:49;100817.72;;;19.15;100.00
62708;BME280;48769;51.624;5.886;2023-09-19T10:44:21;100823.22;;;19.13;100.00
62708;BME280;48769;51.624;5.886;2023-09-19T10:46:47;100824.78;;;19.16;100.00
62708;BME280;48769;51.624;5.886;2023-09-19T10:49:13;100819.94;;;19.10;100.00
62708;BME280;48769;51.624;5.886;2023-09-19T10:51:41;100818.88;;;19.22;100.00
62708;BME280;48769;51.624;5.886;2023-09-19T10:54:12;100819.78;;;19.42;100.00
62708;BME280;48769;51.624;5.886;2023-09-19T10:56:43;100818.66;;;19.45;100.00
62708;BME280;48769;51.624;5.886;2023-09-19T10:59:12;100820.28;;;19.26;100.00
62708;BME280;48769;51.624;5.886;2023-09-19T11:01:54;100822.31;;;19.34;100.00
62708;BME280;48769;51.624;5.886;2023-09-19T11:04:28;100820.09;;;19.49;100.00
62708;BME280;48769;51.624;5.886;2023-09-19T11:09:46;100812.13;;;19.68;100.00
62708;BME280;48769;51.624;5.886;2023-09-19T11:15:01;100802.97;;;19.90;100.00
62708;BME280;48769;51.624;5.886;2023-09-19T11:17:30;100789.41;;;19.92;100.00
62708;BME280;48769;51.624;5.886;2023-09-19T11:30:47;100760.06;;;20.19;100.00
62708;BME280;48769;51.624;5.886;2023-09-19T11:33:30;100749.28;;;20.39;100.00
62708;BME280;48769;51.624;5.886;2023-09-19T11:36:08;100750.56;;;20.44;100.00
62708;BME280;48769;51.624;5.886;2023-09-19T11:49:17;100721.56;;;20.67;100.00
62708;BME280;48769;51.624;5.886;2023-09-19T11:51:50;100721.56;;;20.67;100.00
62708;BME280;48769;51.624;5.886;2023-09-19T11:54:16;100716.78;;;20.61;100.00
62708;BME280;48769;51.624;5.886;2023-09-19T11:56:53;100727.94;;;20.47;100.00
62708;BME280;48769;51.624;5.886;2023-09-19T11:59:23;100730.63;;;20.47;100.00
62708;BME280;48769;51.624;5.886;2023-09-19T12:01:54;100708.00;;;20.59;100.00
62708;BME280;48769;51.624;5.886;2023-09-19T12:04:36;100715.19;;;20.68;100.00
62708;BME280;48769;51.624;5.886;2023-09-19T12:07:07;100709.91;;;20.76;100.00
62708;BME280;48769;51.624;5.886;2023-09-19T12:09:40;100690.38;;;20.84;100.00
62708;BME280;48769;51.624;5.886;2023-09-19T12:12:12;100706.09;;;20.79;100.00
62708;BME280;48769;51.624;5.886;2023-09-19T12:14:48;100713.50;;;20.67;100.00
62708;BME280;48769;51.624;5.886;2023-09-19T12:17:14;100707.44;;;20.65;100.00
62708;BME280;48769;51.624;5.886;2023-09-19T12:19:52;100703.41;;;20.79;100.00
62708;BME280;48769;51.624;5.886;2023-09-19T12:22:18;100708.63;;;20.81;100.00
62708;BME280;48769;51.624;5.886;2023-09-19T12:24:45;100718.09;;;20.85;100.00
62708;BME280;48769;51.624;5.886;2023-09-19T12:27:12;100702.94;;;21.11;100.00
62708;BME280;48769;51.624;5.886;2023-09-19T12:29:45;100705.75;;;21.19;100.00
62708;BME280;48769;51.624;5.886;2023-09-19T12:32:11;100699.75;;;21.26;100.00
62708;BME280;48769;51.624;5.886;2023-09-19T12:34:36;100716.47;;;21.19;100.00
62708;BME280;48769;51.624;5.886;2023-09-19T12:37:12;100704.44;;;21.23;100.00
62708;BME280;48769;51.624;5.886;2023-09-19T12:39:42;100702.88;;;21.21;100.00
62708;BME280;48769;51.624;5.886;2023-09-19T12:42:10;100707.72;;;21.17;100.00
62708;BME280;48769;51.624;5.886;2023-09-19T12:44:41;100703.97;;;21.28;100.00
62708;BME280;48769;51.624;5.886;2023-09-19T12:47:12;100706.63;;;21.10;100.00
62708;BME280;48769;51.624;5.886;2023-09-19T12:52:50;100718.31;;;20.64;100.00
62708;BME280;48769;51.624;5.886;2023-09-19T12:55:28;100704.44;;;20.68;100.00
62708;BME280;48769;51.624;5.886;2023-09-19T13:00:40;100710.31;;;20.54;100.00
62708;BME280;48769;51.624;5.886;2023-09-19T13:03:25;100727.38;;;20.53;100.00
62708;BME280;48769;51.624;5.886;2023-09-19T13:05:52;100713.09;;;20.62;100.00
62708;BME280;48769;51.624;5.886;2023-09-19T13:08:25;100718.47;;;20.62;100.00
62708;BME280;48769;51.624;5.886;2023-09-19T13:11:05;100723.28;;;20.49;100.00
62708;BME280;48769;51.624;5.886;2023-09-19T13:14:01;100732.91;;;20.42;100.00
62708;BME280;48769;51.624;5.886;2023-09-19T13:16:55;100729.50;;;20.40;100.00
62708;BME280;48769;51.624;5.886;2023-09-19T13:22:04;100719.25;;;20.72;100.00
62708;BME280;48769;51.624;5.886;2023-09-19T13:24:31;100712.41;;;20.88;100.00
62708;BME280;48769;51.624;5.886;2023-09-19T13:26:58;100716.81;;;20.79;100.00
62708;BME280;48769;51.624;5.886;2023-09-19T13:29:25;100727.22;;;20.64;100.00
62708;BME280;48769;51.624;5.886;2023-09-19T13:31:52;100711.69;;;20.48;100.00
62708;BME280;48769;51.624;5.886;2023-09-19T13:34:21;100727.53;;;20.42;100.00